Aşgabat, Türkmenistan

Saat: 11:05 AM TMT Tarih: 29 Mart 2015 (GMT +0500)
Ashgabat | | Change Station
CLOSE
Current Station
Hava Meydanı
Location: Ashgabat,
Yükseklik: 689 ft
Nearby Weather Stations

Elev 689 ft 37.98 °N, 58.37 °E | Updated 5 minutes ago

Overcast
Kapalı
54
Feels Like 54
N
4
Rüzgar Değişken Rüzgar from Kuzey

Bugün
High -- | Low -- F°
--% Chance of Precip.
Dün
High -- | Low -- F°
Precip. -- inç
6:57 AM 7:26 PM
Şişkin Ay, 68% visible
Basınç 30.21 inç
Görüş Uzaklığı 6.2 mil
Bulutlar Çok Bulutlu 5600 ft
Kapalı 10000 ft
Çiğ noktası 30
Nem oranı 41%
Yağış 0.00 inç
Kar Kalınlığı Not available.
2 out of 12
Pollen Not available.
Hava Kalitesi Not available.
Flu Activity Not available.
METAR UTAA 290600Z 01002MPS 9999 BKN056 OVC100 12/M01 Q1023 R12/CLRD70 NOSIG

More Conditions Fewer Conditions

Basınç 30.21 inç
Görüş Uzaklığı 6.2 mil
Bulutlar Çok Bulutlu 5600 ft
Kapalı 10000 ft
Çiğ noktası 30
Nem oranı 41%
Yağış 0.00 inç
Kar Kalınlığı Not available.
2 out of 12
Pollen Not available.
Hava Kalitesi Not available.
Flu Activity Not available.
METAR UTAA 290600Z 01002MPS 9999 BKN056 OVC100 12/M01 Q1023 R12/CLRD70 NOSIG

More Conditions Fewer Conditions

10-Day Weather Forecast

Almanac

Gökbilim

Mar. 29, 2015 Rise Set
Gerçek Zaman
Günlük Tan
Deniz Tanı
Geceyarısı Yıldız Zamanı
Ay
Görünür Işığın Uzunluğu
Günün Uzunluğu
Tomorrow will be .
, % of the Moon is Illuminated

Günün En Yüksekleri

Country Highs Country Lows

Community

WunderPhotos

Upload Photos

1,809,186 photos uploaded!

WunderBlogs® & News

Nearby

Hava Kalitesi

  Hava Kalitesi Hava Kalitesi Endeksi Kirletici
Not available.

Kar Kalınlığı

Station Depth Yükseklik

Earthquake Activity

Şehir Distance Mag. Time & Date
Minimum magnitude displayed is 2.5.

Coastal Water Temperatures

Yer Sıcaklık

Stations

Nearby Weather Stations

Station Location Sıcaklık Rüzgar Etkisi Çiğ noktası Nem oranı Rüzgar Precip. Elev Güncellenme Zamanı Biçim